Latest Weather Observations for Kingaroy

IDQ60801

Issued at 2:32 pm EST Monday 27 February 2017 (issued every 30 minutes, with the page automatically refreshed every 10 minutes)

About weather observations | Map of weather stations | Latest weather observations for QLD | Other Formats
Station Details ID: 040922 Name: KINGAROY AIRPORT Lat: -26.57 Lon: 151.84 Height: 433.67 m
Data from the previous 72 hours. | See also: Recent months at Kingaroy
Date/Time
EST
Temp
°C
App
Temp
°C
Dew
Point
°C
Rel
Hum
%
Delta-T
°C
Wind Press
QNH
hPa
Press
MSL
hPa
Rain since
9am
mm
Dir  Spd
km/h
Gust
km/h
Spd
kts
Gust
kts
27/02:00pm 27.1 25.6 14.1 44 7.9 ENE 15 28 8 15 1015.9 1013.5 0.0
27/01:30pm 27.6 26.0 12.8 40 8.8 E 13 30 7 16 1016.1 1013.7 0.0
27/01:00pm 28.0 25.9 12.4 38 9.2 E 15 24 8 13 1016.8 1014.4 0.0
27/12:30pm 28.6 26.7 14.1 41 8.9 E 17 24 9 13 1017.3 1014.9 0.0
27/12:00pm 27.8 26.5 14.8 45 8.0 E 15 24 8 13 1017.8 1015.4 0.0
27/11:30am 27.0 25.2 14.4 46 7.7 E 17 33 9 18 1018.3 1015.9 0.0
27/11:00am 25.3 23.1 14.4 50 6.6 ESE 19 30 10 16 1018.8 1016.4 0.0
27/10:30am 26.1 24.8 15.8 53 6.4 SE 17 26 9 14 1019.0 1016.6 0.0
27/10:00am 24.2 21.7 15.1 56 5.5 SE 22 33 12 18 1019.3 1016.9 0.0
27/09:30am 23.7 21.3 15.5 60 5.0 SE 22 33 12 18 1019.4 1017.0 0.0
27/09:00am 21.7 19.5 14.8 65 4.1 ESE 20 33 11 18 1019.4 1017.0 0.0
27/08:30am 21.8 19.7 15.2 66 4.0 SE 20 30 11 16 1019.1 1016.7 0.0
27/08:00am 21.4 20.0 15.5 69 3.6 SE 17 24 9 13 1018.8 1016.4 0.0
27/07:30am 20.3 18.8 15.3 73 3.0 SSE 17 24 9 13 1018.6 1016.2 0.0
27/07:00am 19.1 17.6 15.2 78 2.3 SSE 17 24 9 13 1018.4 1016.0 0.0
27/06:30am 17.9 17.1 15.0 83 1.7 SSE 13 17 7 9 1018.1 1015.7 0.0
27/06:00am 17.2 16.7 15.0 87 1.3 SSE 11 15 6 8 1017.9 1015.5 0.0
27/05:30am 17.1 16.5 14.7 86 1.4 SSE 11 15 6 8 1017.6 1015.2 0.0
27/05:00am 16.5 16.2 14.3 87 1.3 SSE 9 13 5 7 1017.3 1014.9 0.0
27/04:30am 17.1 17.3 14.6 85 1.5 SSE 7 11 4 6 1017.1 1014.7 0.0
27/04:00am 17.6 17.1 15.0 85 1.5 SSE 11 13 6 7 1016.9 1014.5 0.0
27/03:30am 17.8 17.6 14.7 82 1.8 SSE 9 13 5 7 1016.8 1014.4 0.0
27/03:00am 18.4 18.0 15.1 81 2.0 SSE 11 15 6 8 1017.5 1015.1 0.0
27/02:30am 18.7 18.7 15.2 80 2.1 ESE 9 13 5 7 1017.7 1015.3 0.0
27/02:00am 18.2 18.4 14.7 80 2.1 S 7 11 4 6 1018.0 1015.6 0.0
27/01:30am 19.4 19.1 15.5 78 2.3 ESE 11 17 6 9 1017.8 1015.4 0.0
27/01:00am 19.8 19.2 15.7 77 2.5 ESE 13 20 7 11 1017.9 1015.5 0.0
27/12:30am 19.8 20.0 15.7 77 2.5 ESE 9 15 5 8 1017.9 1015.5 0.0
27/12:00am 20.0 19.4 15.6 76 2.7 ESE 13 22 7 12 1017.8 1015.4 0.0
 
Date/Time
EST
Temp
°C
App
Temp
°C
Dew
Point
°C
Rel
Hum
%
Delta-T
°C
Wind Press
QNH
hPa
Press
MSL
hPa
Rain since
9am
mm
Dir  Spd
km/h
Gust
km/h
Spd
kts
Gust
kts
26/11:30pm 20.2 19.4 15.2 73 3.0 ESE 13 24 7 13 1018.1 1015.7 0.0
26/11:00pm 20.4 19.3 15.2 72 3.1 ESE 15 22 8 12 1018.3 1015.9 0.0
26/10:30pm 20.3 19.3 14.7 70 3.3 ESE 13 20 7 11 1018.2 1015.8 0.0
26/10:00pm 20.6 19.5 14.3 67 3.7 ESE 13 19 7 10 1018.5 1016.1 0.0
26/09:30pm 21.0 19.1 14.2 65 4.0 ESE 17 22 9 12 1018.2 1015.8 0.0
26/09:00pm 21.2 19.1 13.6 62 4.5 ESE 17 26 9 14 1018.4 1016.0 0.0
26/08:30pm 21.7 19.3 13.9 61 4.6 ESE 19 28 10 15 1018.4 1016.0 0.0
26/08:00pm 22.5 20.1 14.4 60 4.8 ESE 20 30 11 16 1018.1 1015.7 0.0
26/07:30pm 23.4 21.0 14.4 57 5.4 ESE 20 30 11 16 1017.7 1015.3 0.0
26/07:00pm 23.9 21.8 13.7 53 6.1 E 17 24 9 13 1016.8 1014.4 0.0
26/06:30pm 24.9 22.5 13.8 50 6.6 ESE 19 28 10 15 1016.4 1013.9 0.0
26/06:00pm 25.9 22.8 13.4 46 7.5 ESE 22 32 12 17 1015.4 1013.0 0.0
26/05:30pm 27.0 23.9 13.4 43 8.2 ESE 22 35 12 19 1014.9 1012.5 0.0
26/05:00pm 26.4 24.6 15.4 50 6.8 E 19 28 10 15 1014.7 1012.3 0.0
26/04:30pm 27.6 25.6 15.6 48 7.5 E 20 30 11 16 1014.5 1012.0 0.0
26/04:00pm 28.2 25.1 14.4 42 8.5 SE 24 39 13 21 1014.8 1012.4 0.0
26/03:30pm 30.2 27.5 14.7 39 9.6 SE 22 33 12 18 1014.5 1012.0 0.0
26/03:00pm 29.4 27.2 14.4 40 9.2 SE 19 33 10 18 1014.7 1012.3 0.0
26/02:30pm 28.9 26.5 13.9 39 9.1 SE 19 32 10 17 1014.9 1012.5 0.0
26/02:00pm 30.0 27.8 14.5 38 9.6 SE 19 35 10 19 1015.3 1012.9 0.0
26/01:30pm 29.8 27.8 14.0 38 9.7 ESE 17 26 9 14 1015.6 1013.2 0.0
26/01:00pm 27.1 25.1 13.8 44 8.0 SE 17 30 9 16 1016.0 1013.6 0.0
26/12:30pm 27.1 25.1 13.8 44 8.0 ESE 17 30 9 16 1016.5 1014.0 0.0
26/12:00pm 26.5 24.5 14.9 49 7.1 E 19 30 10 16 1016.8 1014.4 0.0
26/11:30am 26.1 24.6 15.2 51 6.7 ESE 17 37 9 20 1017.0 1014.6 0.0
26/11:00am 25.8 24.0 15.5 53 6.4 SE 19 33 10 18 1017.4 1015.0 0.0
26/10:30am 24.7 23.1 15.9 58 5.4 SE 19 32 10 17 1017.6 1015.2 0.0
26/10:00am 24.7 23.4 16.9 62 4.9 SE 19 28 10 15 1017.9 1015.5 0.0
26/09:30am 23.1 22.0 16.4 66 4.2 SE 17 24 9 13 1018.0 1015.6 0.0
26/09:00am 22.4 20.9 16.2 68 3.8 ESE 19 32 10 17 1017.9 1015.5 0.0
26/08:30am 22.2 21.0 16.0 68 3.8 ESE 17 24 9 13 1017.5 1015.1 0.0
26/08:00am 21.9 20.9 15.5 67 3.9 ESE 15 22 8 12 1017.4 1015.0 0.0
26/07:30am 21.1 20.5 15.6 71 3.3 SE 13 19 7 10 1017.2 1014.8 0.0
26/07:00am 19.3 18.3 14.6 74 2.8 SSE 13 17 7 9 1017.3 1014.9 0.0
26/06:30am 17.7 17.3 14.2 80 2.0 SSE 9 13 5 7 1017.1 1014.7 0.0
26/06:00am 17.0 17.2 14.1 83 1.7 WSW 6 9 3 5 1016.9 1014.5 0.0
26/05:30am 17.2 18.1 13.9 81 1.9 NE 2 6 1 3 1016.2 1013.8 0.0
26/05:00am 17.2 16.4 14.1 82 1.8 S 11 13 6 7 1016.2 1013.8 0.0
26/04:30am 17.9 16.6 13.8 77 2.4 SSE 13 17 7 9 1016.0 1013.6 0.0
26/04:00am 18.2 17.2 14.5 79 2.2 SSE 13 17 7 9 1015.8 1013.4 0.0
26/03:30am 17.9 17.5 14.0 78 2.3 SSE 9 13 5 7 1015.5 1013.1 0.0
26/03:00am 18.3 17.9 14.0 76 2.5 S 9 11 5 6 1015.5 1013.1 0.0
26/02:30am 19.6 19.4 14.6 73 3.0 SSE 9 15 5 8 1015.6 1013.2 0.0
26/02:00am 19.3 19.2 15.0 76 2.6 SE 9 13 5 7 1015.7 1013.3 0.0
26/01:30am 18.6 18.7 15.5 82 1.9 SE 9 15 5 8 1015.8 1013.4 0.0
26/01:00am 18.7 20.0 15.2 80 2.1 E 2 6 1 3 1016.0 1013.6 0.0
26/12:30am 19.2 19.6 15.3 78 2.3 ESE 7 9 4 5 1016.4 1013.9 0.0
26/12:00am 19.8 19.7 15.0 74 2.9 ESE 9 13 5 7 1016.6 1014.1 0.0
 
Date/Time
EST
Temp
°C
App
Temp
°C
Dew
Point
°C
Rel
Hum
%
Delta-T
°C
Wind Press
QNH
hPa
Press
MSL
hPa
Rain since
9am
mm
Dir  Spd
km/h
Gust
km/h
Spd
kts
Gust
kts
25/11:30pm 20.3 20.3 15.1 72 3.1 ESE 9 17 5 9 1017.1 1014.7 0.0
25/11:00pm 20.5 21.1 15.9 75 2.8 ESE 7 13 4 7 1017.1 1014.7 0.0
25/10:30pm 21.2 20.0 16.0 72 3.2 E 17 24 9 13 1017.0 1014.6 0.0
25/10:00pm 21.6 20.0 16.1 71 3.4 ESE 19 24 10 13 1017.3 1014.9 0.0
25/09:30pm 22.0 21.2 16.1 69 3.6 E 15 20 8 11 1017.5 1015.1 0.0
25/09:00pm 22.7 21.1 15.0 61 4.7 E 17 24 9 13 1016.8 1014.4 0.0
25/08:30pm 23.3 20.8 14.0 56 5.6 E 20 28 11 15 1016.5 1014.0 0.0
25/08:00pm 24.1 21.6 13.6 52 6.2 E 19 26 10 14 1016.1 1013.7 0.0
25/07:30pm 24.4 23.0 13.3 50 6.6 E 13 17 7 9 1015.7 1013.3 0.0
25/07:00pm 25.6 24.1 13.1 46 7.4 ESE 13 19 7 10 1015.2 1012.8 0.0
25/06:30pm 26.7 24.6 12.4 41 8.4 ESE 15 20 8 11 1014.7 1012.3 0.0
25/06:00pm 28.1 25.8 11.6 36 9.7 ESE 15 24 8 13 1014.5 1012.0 0.0
25/05:30pm 29.2 25.9 10.8 32 10.7 E 19 24 10 13 1014.3 1011.8 0.0
25/05:00pm 29.6 26.6 10.7 31 11.0 ESE 17 26 9 14 1014.1 1011.6 0.0
25/04:30pm 30.2 27.6 10.7 30 11.4 ESE 15 22 8 12 1014.0 1011.5 0.0
25/04:00pm 30.1 27.3 10.1 29 11.5 ESE 15 26 8 14 1014.0 1011.5 0.0
25/03:30pm 31.1 28.0 10.4 28 12.1 ESE 17 22 9 12 1014.1 1011.6 0.0
25/03:00pm 30.6 27.6 10.5 29 11.7 ESE 17 26 9 14 1014.3 1011.8 0.0
25/02:30pm 31.2 28.1 11.6 30 11.6 SSE 19 26 10 14 1014.5 1012.0 0.0
25/02:00pm 30.2 27.6 10.7 30 11.4 SE 15 24 8 13 1015.1 1012.7 0.0
25/01:30pm 30.7 28.2 11.1 30 11.5 SSE 15 24 8 13 1015.5 1013.1 0.0
25/01:00pm 29.9 28.6 11.4 32 10.9 SSE 9 24 5 13 1015.9 1013.5 0.0
25/12:30pm 29.3 28.3 12.3 35 10.1 SSE 9 20 5 11 1016.2 1013.8 0.0
25/12:00pm 28.1 25.9 10.8 34 10.0 ESE 13 24 7 13 1016.7 1014.3 0.0
25/11:30am 28.6 26.4 13.3 39 9.2 SE 17 26 9 14 1017.2 1014.8 0.0
25/11:00am 26.6 23.6 10.7 37 9.1 SE 17 22 9 12 1017.7 1015.3 0.0
25/10:30am 26.5 24.3 13.3 44 7.9 E 17 24 9 13 1018.0 1015.6 0.0
25/10:00am 25.6 24.0 13.8 48 7.1 E 15 24 8 13 1018.3 1015.9 0.0
25/09:30am 24.1 23.3 15.1 57 5.5 SE 13 19 7 10 1018.6 1016.2 0.0
25/09:00am 22.8 21.3 15.4 63 4.5 SE 17 26 9 14 1018.9 1016.5 0.0
25/08:30am 22.8 20.6 14.9 61 4.8 ESE 20 32 11 17 1018.6 1016.2 0.0
25/08:00am 21.0 19.5 16.2 74 2.9 SE 19 26 10 14 1018.9 1016.5 0.0
25/07:30am 20.8 20.0 17.0 79 2.4 ESE 17 26 9 14 1018.6 1016.2 0.0
25/07:00am 19.9 20.3 17.3 85 1.6 SE 11 17 6 9 1018.3 1015.9 0.0
25/06:30am 18.8 19.7 17.6 93 0.7 SE 9 13 5 7 1018.0 1015.6 0.0
25/06:00am 17.5 18.4 16.5 94 0.6 ESE 7 11 4 6 1018.0 1015.6 0.0
25/05:30am 16.1 16.3 14.6 91 0.9 ESE 7 9 4 5 1017.6 1015.2 0.0
25/05:00am 16.9 17.3 15.4 91 0.9 SE 7 11 4 6 1017.5 1015.1 0.0
25/04:30am 17.4 18.1 16.1 92 0.8 SE 7 9 4 5 1017.4 1015.0 0.0
25/04:00am 16.9 17.1 15.8 93 0.7 SSE 9 13 5 7 1017.2 1014.8 0.0
25/03:30am 16.5 17.0 15.0 91 0.9 SE 6 9 3 5 1016.9 1014.5 0.0
25/03:00am 17.1 18.5 15.4 90 1.0 E 2 6 1 3 1016.8 1014.4 0.0
25/02:30am 17.6 18.2 15.4 87 1.3 E 6 7 3 4 1016.9 1014.5 0.0
25/02:00am 18.4 19.2 16.4 88 1.2 SE 7 11 4 6 1016.9 1014.5 0.0
25/01:30am 18.5 19.4 16.5 88 1.2 ESE 7 9 4 5 1017.2 1014.8 0.0
25/01:00am 18.1 19.0 16.1 88 1.2 ESE 6 7 3 4 1017.3 1014.9 0.0
25/12:30am 17.8 18.6 15.8 88 1.2 ESE 6 7 3 4 1017.5 1015.1 0.0
25/12:00am 18.0 19.9 15.8 87 1.3 CALM 0 0 0 0 1017.7 1015.3 0.0
 
Date/Time
EST
Temp
°C
App
Temp
°C
Dew
Point
°C
Rel
Hum
%
Delta-T
°C
Wind Press
QNH
hPa
Press
MSL
hPa
Rain since
9am
mm
Dir  Spd
km/h
Gust
km/h
Spd
kts
Gust
kts
24/11:30pm 18.9 21.2 16.7 87 1.3 CALM 0 6 0 3 1018.0 1015.6 0.0
24/11:00pm 19.0 19.9 16.2 84 1.7 SE 6 9 3 5 1018.0 1015.6 0.0
24/10:30pm 20.1 21.0 16.5 80 2.2 E 7 9 4 5 1018.0 1015.6 0.0
24/10:00pm 20.9 22.3 16.5 76 2.7 ESE 4 9 2 5 1018.3 1015.9 0.0
24/09:30pm 21.9 22.9 16.8 73 3.2 ENE 7 13 4 7 1018.2 1015.8 0.0
24/09:00pm 22.6 22.4 16.6 69 3.7 ENE 13 20 7 11 1017.9 1015.5 0.0
24/08:30pm 23.4 23.1 15.5 61 4.8 ENE 11 17 6 9 1017.9 1015.5 0.0
24/08:00pm 22.6 21.6 13.4 56 5.4 E 11 13 6 7 1017.8 1015.4 0.0
24/07:30pm 24.4 23.4 13.3 50 6.6 ESE 11 15 6 8 1017.6 1015.2 0.0
24/07:00pm 25.1 23.7 12.3 45 7.5 ESE 11 15 6 8 1017.3 1014.9 0.0
24/06:30pm 26.6 25.0 11.5 39 8.8 ESE 11 15 6 8 1017.0 1014.6 0.0
24/06:00pm 28.2 25.8 11.3 35 9.8 ESE 15 20 8 11 1016.8 1014.4 0.0
24/05:30pm 29.2 26.6 10.8 32 10.7 ESE 15 26 8 14 1016.5 1014.0 0.0
24/05:00pm 29.8 26.7 10.4 30 11.2 SE 17 26 9 14 1016.2 1013.8 0.0
24/04:30pm 30.1 27.5 10.6 30 11.3 ESE 15 32 8 17 1016.2 1013.8 0.0
24/04:00pm 30.3 28.1 10.8 30 11.4 SE 13 24 7 13 1016.4 1013.9 0.0
24/03:30pm 30.4 26.8 8.2 25 12.4 SE 17 20 9 11 1016.6 1014.1 0.0
24/03:00pm 30.8 28.1 11.7 31 11.3 ESE 17 22 9 12 1016.6 1014.1 0.0

Other Formats:

Comma delimited format used in spreadsheet applications
http://www.bom.gov.au/fwo/IDQ60801/IDQ60801.94549.axf

JavaScript Object Notation format (JSON) in row-major order
http://www.bom.gov.au/fwo/IDQ60801/IDQ60801.94549.json